Time;durP1;ratioP1;P1;durP2;ratioP2;P2;SDS_P1;SDS_P2;PMS_P1;PMS_P2;Temp;Humidity;BMP_temperature;BMP_pressure;BME280_temperature;BME280_humidity;BME280_pressure;Samples;Min_cycle;Max_cycle;Signal;HPM_P1;HPM_P2
2022/04/10 00:01:02;;;;;;;6.22;4.05;;;;;;;4.28;67.33;100406.75;5087358;28;20064;-55
2022/04/10 00:03:31;;;;;;;6.20;3.85;;;;;;;4.29;67.36;100413.94;5076028;28;20041;-57
2022/04/10 00:06:01;;;;;;;8.65;4.65;;;;;;;4.26;67.36;100417.25;5075416;28;20292;-58
2022/04/10 00:08:29;;;;;;;7.38;3.45;;;;;;;4.29;67.74;100418.66;5076756;28;20052;-57
2022/04/10 00:10:56;;;;;;;10.43;4.30;;;;;;;4.33;67.27;100426.09;5075784;28;20048;-56
2022/04/10 00:13:23;;;;;;;9.00;3.97;;;;;;;4.33;67.36;100423.34;5075793;28;20059;-56
2022/04/10 00:15:51;;;;;;;5.57;3.38;;;;;;;4.38;67.23;100420.56;5083954;28;20048;-57
2022/04/10 00:18:18;;;;;;;6.88;3.75;;;;;;;4.33;67.42;100423.34;5095552;28;20048;-55
2022/04/10 00:20:48;;;;;;;6.53;3.83;;;;;;;4.23;67.76;100420.56;5095665;28;20408;-59
2022/04/10 00:23:15;;;;;;;6.45;4.03;;;;;;;4.29;67.27;100433.25;5093810;28;20075;-59
2022/04/10 00:25:43;;;;;;;8.30;3.67;;;;;;;4.25;67.33;100427.44;5075195;28;20053;-57
2022/04/10 00:28:10;;;;;;;11.40;4.43;;;;;;;4.24;67.71;100430.47;5076613;28;20048;-59
2022/04/10 00:30:37;;;;;;;9.80;4.78;;;;;;;4.22;67.65;100430.75;5086213;28;20052;-56
2022/04/10 00:33:05;;;;;;;10.73;4.22;;;;;;;4.20;67.73;100424.69;5075082;28;20060;-58
2022/04/10 00:35:32;;;;;;;9.23;3.70;;;;;;;4.28;67.36;100437.09;5075850;28;20053;-56
2022/04/10 00:38:01;;;;;;;9.80;4.10;;;;;;;4.13;67.88;100443.41;5075157;28;20053;-58
2022/04/10 00:40:29;;;;;;;9.60;4.47;;;;;;;4.12;68.11;100433.50;5075801;28;20044;-56
2022/04/10 00:42:56;;;;;;;7.75;3.75;;;;;;;4.16;68.05;100431.00;5093898;28;20496;-56
2022/04/10 00:45:23;;;;;;;10.93;3.70;;;;;;;4.10;68.00;100435.69;5094693;28;20052;-58
2022/04/10 00:47:51;;;;;;;9.93;4.32;;;;;;;4.10;68.10;100432.13;5088651;28;20048;-57
2022/04/10 00:50:20;;;;;;;6.05;3.88;;;;;;;4.16;67.63;100433.75;5074931;28;20055;-58
2022/04/10 00:52:49;;;;;;;6.53;3.88;;;;;;;4.14;68.00;100436.00;5075306;28;20048;-56
2022/04/10 00:55:18;;;;;;;7.93;4.05;;;;;;;4.09;67.86;100439.53;5074866;28;20052;-58
2022/04/10 00:57:47;;;;;;;10.63;4.47;;;;;;;4.04;68.12;100443.13;5074542;28;20064;-58
2022/04/10 01:00:16;;;;;;;10.65;4.72;;;;;;;4.03;68.40;100444.22;5090807;28;20056;-59
2022/04/10 01:02:43;;;;;;;6.43;4.43;;;;;;;4.00;68.10;100447.50;5074836;28;20052;-53
2022/04/10 01:05:11;;;;;;;7.60;4.45;;;;;;;3.95;68.64;100444.75;5074272;28;20496;-57
2022/04/10 01:07:39;;;;;;;11.65;4.85;;;;;;;4.01;68.36;100449.19;5073998;28;20052;-57
2022/04/10 01:10:08;;;;;;;7.13;4.03;;;;;;;4.10;68.06;100445.91;5075017;28;20374;-55
2022/04/10 01:12:36;;;;;;;13.32;5.35;;;;;;;3.88;69.11;100446.09;5074265;28;20059;-56
2022/04/10 01:15:05;;;;;;;6.90;4.40;;;;;;;3.81;69.77;100447.19;5084161;28;20043;-59
2022/04/10 01:17:35;;;;;;;12.10;4.50;;;;;;;3.86;69.21;100447.22;5094575;28;20048;-56
2022/04/10 01:20:03;;;;;;;11.10;4.95;;;;;;;3.90;69.11;100444.72;5092871;28;20067;-56
2022/04/10 01:22:35;;;;;;;11.65;5.18;;;;;;;3.90;69.09;100441.16;5093126;28;20048;-56
2022/04/10 01:25:05;;;;;;;10.50;5.22;;;;;;;3.90;68.98;100449.41;5074511;28;20052;-58
2022/04/10 01:27:37;;;;;;;10.57;4.85;;;;;;;3.90;69.69;100444.72;5074652;28;20497;-57
2022/04/10 01:30:05;;;;;;;11.20;4.63;;;;;;;3.92;69.27;100450.78;5082271;28;20052;-59
2022/04/10 01:32:33;;;;;;;8.50;4.25;;;;;;;3.96;69.17;100449.16;5082248;28;20063;-55
2022/04/10 01:35:02;;;;;;;9.40;5.18;;;;;;;3.96;69.29;100451.09;5074511;28;20056;-54
2022/04/10 01:37:31;;;;;;;10.27;4.63;;;;;;;3.87;69.13;100448.03;5073793;28;20059;-58
2022/04/10 01:40:00;;;;;;;10.80;4.78;;;;;;;3.93;69.30;100446.97;5092709;28;20850;-56
2022/04/10 01:42:28;;;;;;;11.80;5.40;;;;;;;3.96;68.89;100445.56;5073616;28;20048;-57
2022/04/10 01:44:55;;;;;;;11.10;5.03;;;;;;;3.93;68.99;100448.88;5083257;28;20393;-58
2022/04/10 01:47:23;;;;;;;11.00;4.72;;;;;;;3.91;69.08;100454.66;5094052;28;20058;-55
2022/04/10 01:49:50;;;;;;;9.68;5.65;;;;;;;3.89;69.58;100451.34;5093466;28;20063;-56
2022/04/10 01:52:17;;;;;;;11.88;4.55;;;;;;;3.77;70.08;100454.31;5082484;28;20398;-57
2022/04/10 01:54:45;;;;;;;11.43;5.10;;;;;;;3.75;69.93;100455.69;5087265;28;20051;-59
2022/04/10 01:57:13;;;;;;;10.02;4.75;;;;;;;3.78;69.68;100446.88;5093948;28;20043;-58
2022/04/10 01:59:41;;;;;;;10.27;4.70;;;;;;;3.73;69.81;100450.44;5092402;28;20052;-57
2022/04/10 02:02:08;;;;;;;9.63;4.90;;;;;;;3.80;69.86;100447.44;5077510;28;20048;-58
2022/04/10 02:04:36;;;;;;;8.75;4.93;;;;;;;3.83;69.64;100453.25;5093446;28;20060;-56
2022/04/10 02:07:03;;;;;;;14.20;5.13;;;;;;;3.89;69.51;100456.03;5093578;28;20052;-59
2022/04/10 02:09:31;;;;;;;8.02;4.65;;;;;;;3.87;69.22;100453.53;5087005;28;20056;-58
2022/04/10 02:11:58;;;;;;;10.55;5.30;;;;;;;3.80;69.11;100450.19;5093321;28;20048;-55
2022/04/10 02:14:27;;;;;;;10.02;4.95;;;;;;;3.76;69.71;100438.91;5091047;28;20052;-57
2022/04/10 02:16:54;;;;;;;11.88;5.20;;;;;;;3.77;69.81;100442.47;5080765;28;20055;-58
2022/04/10 02:19:21;;;;;;;15.07;4.85;;;;;;;3.84;69.09;100443.06;5072798;28;20401;-57
2022/04/10 02:21:48;;;;;;;9.57;4.30;;;;;;;3.82;69.12;100443.34;5073274;28;20413;-55
2022/04/10 02:24:16;;;;;;;8.60;4.63;;;;;;;3.85;69.10;100442.78;5073462;28;20056;-58
2022/04/10 02:26:43;;;;;;;7.80;4.07;;;;;;;3.84;69.22;100443.06;5073265;28;20052;-58
2022/04/10 02:29:10;;;;;;;9.82;4.35;;;;;;;3.78;69.03;100447.72;5081229;28;20047;-55
2022/04/10 02:31:39;;;;;;;13.23;5.55;;;;;;;3.74;69.41;100443.84;5093104;28;20408;-58
2022/04/10 02:34:06;;;;;;;10.60;4.38;;;;;;;3.72;69.70;100448.81;5093492;28;20507;-57
2022/04/10 02:36:34;;;;;;;11.52;4.55;;;;;;;3.74;69.47;100445.75;5092482;28;20059;-58
2022/04/10 02:39:01;;;;;;;10.70;4.80;;;;;;;3.81;69.10;100440.84;5092903;28;20055;-58
2022/04/10 02:41:28;;;;;;;11.93;4.63;;;;;;;3.76;69.28;100452.69;5091720;28;20416;-59
2022/04/10 02:43:56;;;;;;;10.68;5.18;;;;;;;3.84;69.34;100459.56;5082225;28;20059;-59
2022/04/10 02:46:23;;;;;;;9.45;4.55;;;;;;;3.90;68.81;100460.44;5093196;28;20409;-59
2022/04/10 02:48:51;;;;;;;12.45;5.43;;;;;;;3.95;68.75;100460.44;5092815;28;20055;-59
2022/04/10 02:51:19;;;;;;;12.23;5.20;;;;;;;4.02;68.42;100461.84;5092367;28;20052;-59
2022/04/10 02:53:46;;;;;;;8.70;4.47;;;;;;;4.01;68.31;100459.34;5092502;28;20058;-59
2022/04/10 02:56:13;;;;;;;10.45;4.32;;;;;;;3.97;68.42;100464.59;5091649;28;20048;-58
2022/04/10 02:58:40;;;;;;;11.45;4.40;;;;;;;4.02;67.83;100461.84;5084338;28;20397;-59
2022/04/10 03:01:08;;;;;;;12.10;4.82;;;;;;;3.98;68.52;100462.66;5083800;28;20075;-57
2022/04/10 03:03:36;;;;;;;12.10;5.07;;;;;;;3.99;67.95;100465.16;5079564;28;20052;-59
2022/04/10 03:06:04;;;;;;;10.65;4.88;;;;;;;4.03;68.19;100469.03;5072067;28;20504;-58
2022/04/10 03:08:32;;;;;;;10.18;4.10;;;;;;;4.06;68.12;100468.47;5072269;28;20106;-59
2022/04/10 03:10:59;;;;;;;7.25;4.65;;;;;;;4.08;68.01;100465.47;5073819;28;20503;-59
2022/04/10 03:13:26;;;;;;;9.15;4.55;;;;;;;4.06;68.21;100473.19;5075683;28;20058;-59
2022/04/10 03:15:53;;;;;;;8.13;4.32;;;;;;;4.14;67.73;100474.59;5092446;28;20059;-58
2022/04/10 03:18:21;;;;;;;8.60;3.88;;;;;;;4.20;67.59;100479.84;5091875;28;20048;-58
2022/04/10 03:20:48;;;;;;;9.02;3.97;;;;;;;4.25;67.42;100479.00;5092079;28;20075;-59
2022/04/10 03:23:17;;;;;;;8.90;4.38;;;;;;;4.34;67.05;100473.78;5089050;28;20048;-59
2022/04/10 03:25:45;;;;;;;8.43;3.70;;;;;;;4.40;66.60;100478.22;5072024;28;20417;-59
2022/04/10 03:28:12;;;;;;;10.85;4.65;;;;;;;4.41;66.62;100480.69;5072443;28;20053;-59
2022/04/10 03:30:41;;;;;;;10.02;4.03;;;;;;;4.44;66.40;100484.84;5090578;28;20501;-59
2022/04/10 03:33:09;;;;;;;12.85;4.85;;;;;;;4.36;66.24;100477.91;5092412;28;20051;-59
2022/04/10 03:35:36;;;;;;;10.73;5.25;;;;;;;4.35;66.62;100490.06;5092098;28;20055;-58
2022/04/10 03:38:04;;;;;;;12.02;4.90;;;;;;;4.44;66.40;100496.69;5092138;28;20055;-59
2022/04/10 03:40:32;;;;;;;14.18;4.40;;;;;;;4.42;66.26;100498.91;5092538;28;20407;-58
2022/04/10 03:43:00;;;;;;;10.93;4.10;;;;;;;4.46;66.02;100501.94;5092477;28;20052;-59
2022/04/10 03:45:27;;;;;;;9.50;4.07;;;;;;;4.50;65.97;100505.00;5089487;28;20070;-59
2022/04/10 03:47:54;;;;;;;7.10;3.67;;;;;;;4.52;65.41;100498.09;5092003;28;20044;-59
2022/04/10 03:50:22;;;;;;;8.98;4.28;;;;;;;4.59;65.31;100508.84;5091749;28;20507;-59
2022/04/10 03:52:49;;;;;;;11.57;4.60;;;;;;;4.46;65.56;100511.03;5072867;28;20493;-59
2022/04/10 03:55:16;;;;;;;11.32;5.07;;;;;;;4.43;65.59;100517.13;5071942;28;20095;-58
2022/04/10 03:57:45;;;;;;;8.55;4.05;;;;;;;4.40;65.26;100516.81;5071959;28;20405;-56
2022/04/10 04:00:13;;;;;;;10.25;4.55;;;;;;;4.26;66.08;100506.31;5084189;28;20067;-58
2022/04/10 04:02:42;;;;;;;9.63;4.15;;;;;;;4.26;65.85;100510.97;5092084;28;20048;-52
2022/04/10 04:05:10;;;;;;;9.75;4.50;;;;;;;4.20;65.91;100523.94;5091271;28;20079;-53
2022/04/10 04:07:38;;;;;;;6.75;3.65;;;;;;;4.19;65.77;100524.22;5089124;28;20076;-58
2022/04/10 04:10:06;;;;;;;9.38;4.70;;;;;;;4.16;66.07;100522.81;5092215;28;20044;-56
2022/04/10 04:12:35;;;;;;;8.35;4.15;;;;;;;4.17;65.96;100529.16;5090137;28;20062;-58
2022/04/10 04:15:04;;;;;;;8.83;4.20;;;;;;;4.13;66.65;100528.88;5089723;28;20481;-58
2022/04/10 04:17:31;;;;;;;8.70;3.97;;;;;;;4.04;66.46;100534.06;5091513;28;20450;-58
2022/04/10 04:19:59;;;;;;;12.27;4.80;;;;;;;4.03;66.33;100535.19;5091569;28;21040;-60
2022/04/10 04:22:26;;;;;;;12.02;4.60;;;;;;;3.99;66.85;100547.84;5088385;28;21343;-58
2022/04/10 04:24:54;;;;;;;10.55;4.18;;;;;;;4.04;66.86;100541.50;5074643;28;20052;-58
2022/04/10 04:27:21;;;;;;;10.23;4.55;;;;;;;4.05;66.91;100537.66;5071763;28;20484;-58
2022/04/10 04:29:49;;;;;;;8.48;4.25;;;;;;;4.12;66.33;100538.25;5072649;28;20049;-60
2022/04/10 04:32:18;;;;;;;7.82;3.60;;;;;;;4.06;66.90;100551.16;5072476;28;20048;-57
2022/04/10 04:34:45;;;;;;;9.75;4.22;;;;;;;4.12;66.49;100549.28;5071156;28;20064;-57
2022/04/10 04:37:12;;;;;;;11.20;4.45;;;;;;;4.10;66.75;100550.66;5071102;28;20086;-52
2022/04/10 04:39:40;;;;;;;10.20;5.47;;;;;;;4.14;66.57;100549.00;5077249;28;20044;-58
2022/04/10 04:42:08;;;;;;;10.93;4.88;;;;;;;4.14;66.43;100551.78;5093104;28;20070;-58
2022/04/10 04:44:36;;;;;;;13.70;4.68;;;;;;;4.15;66.34;100553.41;5094344;28;20043;-58
2022/04/10 04:47:04;;;;;;;10.50;4.22;;;;;;;4.13;66.28;100561.13;5087966;28;20063;-57
2022/04/10 04:49:33;;;;;;;9.18;3.90;;;;;;;4.13;66.52;100561.13;5081998;28;20419;-57
2022/04/10 04:52:00;;;;;;;17.08;4.85;;;;;;;4.15;66.07;100559.75;5075835;28;20063;-57
2022/04/10 04:54:27;;;;;;;9.45;4.53;;;;;;;4.16;66.25;100566.09;5083030;28;20048;-57
2022/04/10 04:56:55;;;;;;;13.18;4.82;;;;;;;4.16;66.00;100569.69;5082428;28;20055;-58
2022/04/10 04:59:22;;;;;;;10.75;4.00;;;;;;;4.19;65.67;100577.41;5075807;28;20053;-58
2022/04/10 05:01:49;;;;;;;9.93;4.50;;;;;;;4.18;66.27;100580.44;5075527;28;20059;-58
2022/04/10 05:04:17;;;;;;;9.52;4.20;;;;;;;4.17;65.94;100578.78;5078503;28;20044;-58
2022/04/10 05:06:45;;;;;;;11.50;4.90;;;;;;;4.20;65.72;100575.47;5081135;28;20067;-58
2022/04/10 05:09:16;;;;;;;12.35;5.35;;;;;;;4.19;65.66;100574.66;5078676;28;20051;-54
2022/04/10 05:11:43;;;;;;;10.07;4.22;;;;;;;4.25;65.72;100578.25;5076792;28;20055;-58
2022/04/10 05:14:11;;;;;;;13.85;5.20;;;;;;;4.33;65.80;100587.97;5078579;28;20118;-58
2022/04/10 05:16:38;;;;;;;11.57;4.55;;;;;;;4.47;65.03;100572.53;5077405;28;20056;-58
2022/04/10 05:19:05;;;;;;;10.48;5.53;;;;;;;4.39;65.57;100581.34;5079676;28;20056;-58
2022/04/10 05:21:33;;;;;;;10.00;4.10;;;;;;;4.39;65.10;100590.47;5084302;28;20060;-57
2022/04/10 05:24:01;;;;;;;10.15;4.43;;;;;;;4.47;64.84;100589.09;5074198;28;20393;-58
2022/04/10 05:26:30;;;;;;;11.90;5.32;;;;;;;4.38;65.25;100597.06;5074372;28;20056;-58
2022/04/10 05:28:57;;;;;;;8.07;4.55;;;;;;;4.39;65.26;100595.97;5075333;28;20096;-58
2022/04/10 05:31:25;;;;;;;12.75;4.95;;;;;;;4.41;65.40;100599.28;5094160;28;20056;-58
2022/04/10 05:33:53;;;;;;;11.25;4.75;;;;;;;4.54;65.00;100599.88;5076962;28;20056;-56
2022/04/10 05:36:21;;;;;;;10.93;4.38;;;;;;;4.60;64.88;100601.53;5073649;28;20059;-58
2022/04/10 05:38:48;;;;;;;10.93;4.95;;;;;;;4.60;64.86;100607.91;5088474;28;20048;-58
2022/04/10 05:41:17;;;;;;;9.52;4.45;;;;;;;4.64;64.79;100603.50;5089804;28;20052;-58
2022/04/10 05:43:44;;;;;;;10.52;4.18;;;;;;;4.72;64.64;100609.56;5092243;28;20060;-56
2022/04/10 05:46:11;;;;;;;9.45;4.30;;;;;;;4.79;64.34;100602.72;5080866;28;20108;-55
2022/04/10 05:48:38;;;;;;;7.25;3.95;;;;;;;4.82;63.83;100610.44;5092350;28;20404;-57
2022/04/10 05:51:07;;;;;;;9.02;4.80;;;;;;;4.85;63.86;100603.53;5094128;28;20051;-58
2022/04/10 05:53:35;;;;;;;9.30;4.38;;;;;;;4.90;63.80;100608.25;5083635;28;20525;-54
2022/04/10 05:56:02;;;;;;;11.25;5.32;;;;;;;4.91;64.38;100607.13;5085472;28;20071;-57
2022/04/10 05:58:33;;;;;;;10.85;4.80;;;;;;;5.01;62.99;100605.22;5075578;28;20057;-57
2022/04/10 06:01:00;;;;;;;13.13;4.28;;;;;;;5.03;63.26;100610.47;5078271;28;20052;-58
2022/04/10 06:03:27;;;;;;;13.50;5.45;;;;;;;5.07;63.43;100617.09;5079727;28;20043;-60
2022/04/10 06:05:55;;;;;;;11.25;4.82;;;;;;;5.12;62.89;100603.28;5076249;28;20064;-58
2022/04/10 06:08:22;;;;;;;9.40;4.40;;;;;;;5.20;62.71;100613.78;5073093;28;20448;-58
2022/04/10 06:10:50;;;;;;;10.27;4.25;;;;;;;5.31;62.93;100609.09;5081450;28;20053;-58
2022/04/10 06:13:17;;;;;;;11.65;4.70;;;;;;;5.21;62.97;100618.22;5078610;28;20048;-58
2022/04/10 06:15:49;;;;;;;11.88;4.72;;;;;;;5.38;62.46;100617.13;5084260;28;20079;-56
2022/04/10 06:18:16;;;;;;;12.57;5.20;;;;;;;5.41;62.14;100614.63;5078701;28;20420;-58
2022/04/10 06:20:44;;;;;;;9.55;4.97;;;;;;;5.57;61.41;100625.69;5071758;28;20056;-58
2022/04/10 06:23:11;;;;;;;12.60;5.13;;;;;;;5.52;62.03;100626.50;5080461;28;20385;-59
2022/04/10 06:25:40;;;;;;;10.48;4.82;;;;;;;5.66;61.35;100633.13;5091420;28;20059;-58
2022/04/10 06:28:08;;;;;;;11.35;5.63;;;;;;;5.71;61.42;100635.06;5075956;28;20060;-59
2022/04/10 06:30:36;;;;;;;13.80;5.88;;;;;;;5.84;62.16;100639.22;5075987;28;20040;-57
2022/04/10 06:33:05;;;;;;;8.85;4.47;;;;;;;5.97;61.01;100632.31;5072756;28;20056;-57
2022/04/10 06:35:32;;;;;;;12.52;4.93;;;;;;;6.03;61.13;100633.94;5072970;28;20425;-59
2022/04/10 06:37:59;;;;;;;7.78;4.75;;;;;;;6.14;60.02;100634.75;5072729;28;20059;-59
2022/04/10 06:40:27;;;;;;;7.60;4.50;;;;;;;6.29;60.95;100637.47;5086379;28;20519;-55
2022/04/10 06:42:54;;;;;;;7.50;4.47;;;;;;;6.44;60.67;100642.09;5086402;28;20056;-56
2022/04/10 06:45:22;;;;;;;8.48;4.55;;;;;;;6.63;59.82;100645.06;5086960;28;20496;-59
2022/04/10 06:47:49;;;;;;;9.13;3.78;;;;;;;6.73;58.44;100647.78;5091041;28;20052;-59
2022/04/10 06:50:18;;;;;;;9.35;4.40;;;;;;;6.94;58.96;100656.00;5086762;28;20070;-59
2022/04/10 06:52:45;;;;;;;9.20;4.60;;;;;;;7.01;57.79;100654.56;5083688;28;20047;-59
2022/04/10 06:55:12;;;;;;;9.82;4.60;;;;;;;7.20;57.59;100656.66;5085625;28;20515;-59
2022/04/10 06:57:39;;;;;;;10.95;3.83;;;;;;;7.45;57.40;100655.66;5078648;28;20401;-59
2022/04/10 07:00:08;;;;;;;9.77;4.38;;;;;;;7.71;55.80;100654.31;5075764;28;20056;-59
2022/04/10 07:02:35;;;;;;;9.75;4.40;;;;;;;7.86;55.54;100660.84;5071735;28;20060;-60
2022/04/10 07:05:03;;;;;;;9.48;4.55;;;;;;;8.28;55.10;100656.53;5071036;28;20059;-60
2022/04/10 07:07:31;;;;;;;11.63;4.32;;;;;;;8.51;53.17;100661.28;5071731;28;20048;-59
2022/04/10 07:09:59;;;;;;;9.90;4.63;;;;;;;8.56;52.91;100654.84;5088306;28;20047;-60
2022/04/10 07:12:27;;;;;;;7.20;4.00;;;;;;;8.68;52.93;100654.44;5080769;28;20048;-60
2022/04/10 07:14:54;;;;;;;11.93;4.68;;;;;;;8.68;52.19;100660.81;5075484;28;20059;-60
2022/04/10 07:17:21;;;;;;;7.63;4.38;;;;;;;8.71;52.92;100664.94;5071757;28;20079;-60
2022/04/10 07:19:49;;;;;;;9.70;4.32;;;;;;;8.82;52.71;100666.47;5082608;28;20048;-58
2022/04/10 07:25:02;;;;;;;9.00;4.47;;;;;;;9.44;49.88;100676.72;5078453;28;20064;-60
2022/04/10 07:27:29;;;;;;;7.60;4.18;;;;;;;10.11;48.20;100673.63;5074631;28;20055;-60
2022/04/10 07:29:56;;;;;;;9.55;4.45;;;;;;;11.09;47.18;100675.31;5081102;28;20051;-59
2022/04/10 07:32:24;;;;;;;9.93;4.15;;;;;;;11.95;44.88;100674.41;5077671;28;20055;-60
2022/04/10 07:34:51;;;;;;;8.70;4.00;;;;;;;12.86;42.89;100667.38;5078396;28;20466;-59
2022/04/10 07:37:18;;;;;;;7.55;3.83;;;;;;;13.83;41.05;100673.88;5082698;28;20405;-62
2022/04/10 07:39:45;;;;;;;9.93;4.57;;;;;;;14.52;39.30;100662.47;5079017;28;20048;-52
2022/04/10 07:42:14;;;;;;;8.65;4.82;;;;;;;15.85;36.55;100666.88;5071092;28;20048;-61
2022/04/10 07:44:41;;;;;;;9.33;4.40;;;;;;;16.62;35.29;100676.41;5078803;28;20064;-60
2022/04/10 07:47:26;;;;;;;7.80;3.60;;;;;;;17.84;33.92;100670.97;5091093;28;20063;-58
2022/04/10 07:49:54;;;;;;;10.50;4.28;;;;;;;17.94;32.23;100666.84;5087105;28;20368;-59
2022/04/10 07:52:21;;;;;;;8.77;4.28;;;;;;;18.13;32.48;100661.31;5091676;28;20059;-59
2022/04/10 07:54:49;;;;;;;7.05;3.70;;;;;;;19.17;31.34;100665.94;5075777;28;20052;-59
2022/04/10 07:57:18;;;;;;;10.57;4.72;;;;;;;19.03;30.11;100674.91;5071626;28;20041;-60
2022/04/10 07:59:46;;;;;;;6.60;3.08;;;;;;;18.04;31.13;100680.41;5071371;28;20055;-61
2022/04/10 08:02:17;;;;;;;5.25;2.72;;;;;;;17.62;31.83;100675.97;5071184;28;20071;-59
2022/04/10 08:04:44;;;;;;;6.07;2.90;;;;;;;17.53;32.37;100688.56;5071224;28;20075;-60
2022/04/10 08:07:11;;;;;;;6.80;2.80;;;;;;;17.40;32.01;100684.94;5071313;28;20063;-59
2022/04/10 08:09:39;;;;;;;5.93;3.25;;;;;;;17.46;32.74;100691.97;5071624;28;20056;-59
2022/04/10 08:12:07;;;;;;;7.97;2.83;;;;;;;17.95;32.06;100691.81;5080706;28;20412;-60
2022/04/10 08:14:35;;;;;;;6.70;3.03;;;;;;;17.62;32.99;100692.88;5091219;28;20488;-59
2022/04/10 08:17:03;;;;;;;6.33;2.50;;;;;;;17.45;31.93;100693.16;5093920;28;20052;-58
2022/04/10 08:19:30;;;;;;;6.30;2.85;;;;;;;18.93;29.84;100693.22;5091336;28;20474;-60
2022/04/10 08:21:58;;;;;;;6.78;2.65;;;;;;;18.51;30.11;100685.28;5075293;28;20059;-60
2022/04/10 08:24:25;;;;;;;7.88;2.78;;;;;;;18.84;29.28;100693.41;5075193;28;20049;-60
2022/04/10 08:26:52;;;;;;;7.47;2.92;;;;;;;19.86;28.36;100695.34;5075385;28;20048;-59
2022/04/10 08:29:29;;;;;;;5.70;3.17;;;;;;;19.27;28.60;100685.13;5074859;28;20052;-60
2022/04/10 08:31:58;;;;;;;6.47;2.50;;;;;;;19.17;29.05;100697.00;5075507;28;20049;-61
2022/04/10 08:34:25;;;;;;;5.10;2.20;;;;;;;18.62;29.36;100686.38;5075196;28;20056;-60
2022/04/10 08:36:52;;;;;;;7.13;3.20;;;;;;;19.44;28.83;100690.38;5074886;28;20052;-60
2022/04/10 08:39:20;;;;;;;5.82;2.22;;;;;;;18.53;29.59;100697.03;5093182;28;20052;-60
2022/04/10 08:41:48;;;;;;;7.47;2.40;;;;;;;17.85;30.56;100701.63;5083326;28;20515;-60
2022/04/10 08:44:17;;;;;;;6.70;2.97;;;;;;;17.17;31.57;100716.41;5079256;28;20056;-59
2022/04/10 08:46:48;;;;;;;10.63;3.53;;;;;;;17.10;32.37;100712.56;5078096;28;20052;-64
2022/04/10 08:49:38;;;;;;;5.05;2.72;;;;;;;18.57;30.37;100703.59;5090363;28;20040;-58
2022/04/10 08:52:07;;;;;;;6.95;2.58;;;;;;;19.94;29.03;100701.94;5086711;28;20056;-60
2022/04/10 08:54:36;;;;;;;3.47;1.80;;;;;;;21.75;27.37;100700.94;5082233;28;20056;-60
2022/04/10 08:57:06;;;;;;;2.78;1.70;;;;;;;22.02;25.23;100698.84;5084828;28;20059;-58
2022/04/10 08:59:34;;;;;;;6.05;2.60;;;;;;;21.79;23.84;100699.78;5078785;28;20055;-57
2022/04/10 09:02:03;;;;;;;4.32;2.30;;;;;;;22.06;24.55;100706.19;5088487;28;20092;-60
2022/04/10 09:04:33;;;;;;;6.93;2.40;;;;;;;21.58;23.83;100722.19;5091163;28;20052;-59
2022/04/10 09:07:05;;;;;;;6.80;2.05;;;;;;;21.16;24.40;100720.31;5087293;28;20044;-62
2022/04/10 09:09:33;;;;;;;5.22;2.30;;;;;;;20.50;25.22;100716.75;5078428;28;20048;-59
2022/04/10 09:12:01;;;;;;;4.97;2.00;;;;;;;20.01;26.28;100709.75;5079868;28;20416;-58
2022/04/10 09:14:34;;;;;;;7.13;2.53;;;;;;;20.73;25.60;100713.97;5093355;28;20404;-58
2022/04/10 09:17:12;;;;;;;5.68;2.50;;;;;;;20.87;25.50;100702.88;5094472;28;20056;-60
2022/04/10 09:19:42;;;;;;;5.90;2.55;;;;;;;19.82;26.23;100717.06;5092964;28;20473;-56
2022/04/10 09:22:24;;;;;;;5.63;2.40;;;;;;;19.41;27.58;100715.72;5073521;28;20048;-60
2022/04/10 09:25:09;;;;;;;6.55;2.50;;;;;;;18.94;29.08;100710.97;5079146;28;20056;-60
2022/04/10 09:27:39;;;;;;;6.07;2.45;;;;;;;18.50;28.50;100723.16;5080759;28;20063;-60
2022/04/10 09:30:09;;;;;;;6.88;2.45;;;;;;;17.68;28.64;100723.59;5079695;28;20051;-60
2022/04/10 09:32:44;;;;;;;7.28;2.47;;;;;;;16.80;30.55;100719.25;5076059;28;20503;-55
2022/04/10 09:35:15;;;;;;;8.55;3.13;;;;;;;16.03;31.54;100728.19;5084230;28;20495;-55
2022/04/10 09:37:49;;;;;;;5.25;2.33;;;;;;;16.07;31.34;100731.13;5085657;28;20055;-54
2022/04/10 09:40:30;;;;;;;4.90;2.38;;;;;;;16.12;32.00;100718.84;5080207;28;20048;-53
2022/04/10 09:43:07;;;;;;;6.55;3.13;;;;;;;15.92;30.83;100724.16;5073072;28;20052;-57
2022/04/10 09:45:36;;;;;;;5.63;2.45;;;;;;;15.59;31.89;100710.84;5076960;28;20052;-56
2022/04/10 09:48:22;;;;;;;5.17;1.97;;;;;;;15.19;32.64;100707.69;5085016;28;20052;-55
2022/04/10 09:50:53;;;;;;;5.78;1.85;;;;;;;14.96;33.09;100707.97;5085221;28;20063;-58
2022/04/10 09:53:21;;;;;;;4.13;1.83;;;;;;;14.46;33.14;100719.88;5078048;28;20076;-57
2022/04/10 09:55:53;;;;;;;4.78;1.95;;;;;;;13.89;34.25;100725.78;5081338;28;20477;-55
2022/04/10 09:58:21;;;;;;;5.95;2.40;;;;;;;13.45;34.59;100725.75;5087467;28;20048;-55
2022/04/10 10:00:53;;;;;;;5.28;2.10;;;;;;;13.17;35.83;100725.19;5075921;28;20055;-55
2022/04/10 10:03:22;;;;;;;4.75;1.80;;;;;;;12.83;37.04;100725.91;5083525;28;20048;-55
2022/04/10 10:05:52;;;;;;;5.35;2.20;;;;;;;12.52;37.54;100738.78;5087891;28;20059;-57
2022/04/10 10:08:20;;;;;;;5.18;2.10;;;;;;;12.13;38.29;100740.34;5077698;28;20056;-56
2022/04/10 10:10:47;;;;;;;5.40;2.35;;;;;;;12.08;39.76;100748.88;5083388;28;20059;-55
2022/04/10 10:13:15;;;;;;;5.75;2.10;;;;;;;11.97;41.54;100748.31;5072127;28;20075;-56
2022/04/10 10:15:43;;;;;;;6.53;2.00;;;;;;;12.08;41.06;100745.25;5077932;28;20044;-57
2022/04/10 10:18:12;;;;;;;4.65;2.10;;;;;;;12.18;40.08;100751.41;5078663;28;20056;-52
2022/04/10 10:20:42;;;;;;;4.82;1.80;;;;;;;12.15;39.90;100757.59;5083796;28;20464;-52
2022/04/10 10:23:13;;;;;;;4.25;2.35;;;;;;;12.15;40.24;100756.78;5084618;28;20059;-56
2022/04/10 10:25:45;;;;;;;5.30;2.05;;;;;;;12.07;40.40;100757.56;5076730;28;20048;-55
2022/04/10 10:28:39;;;;;;;5.30;1.88;;;;;;;12.13;40.46;100743.13;5081883;28;20380;-52
2022/04/10 10:31:21;;;;;;;4.18;2.00;;;;;;;12.83;40.23;100737.94;5081281;28;20049;-57
2022/04/10 10:33:52;;;;;;;5.45;2.50;;;;;;;14.98;38.13;100733.72;5072309;28;20063;-53
2022/04/10 10:36:24;;;;;;;4.57;2.47;;;;;;;16.14;35.95;100731.38;5072903;28;20059;-58
2022/04/10 10:38:54;;;;;;;6.88;2.67;;;;;;;16.62;33.30;100729.84;5072624;28;20075;-56
2022/04/10 10:41:33;;;;;;;5.13;2.60;;;;;;;18.97;31.65;100719.53;5089920;28;20052;-54
2022/04/10 10:44:17;;;;;;;6.00;2.40;;;;;;;21.28;28.47;100714.44;5091455;28;20047;-54
2022/04/10 10:46:58;;;;;;;4.22;2.30;;;;;;;22.81;26.40;100700.50;5092040;28;20067;-56
2022/04/10 10:49:29;;;;;;;4.65;2.53;;;;;;;24.66;23.19;100709.56;5092624;28;20051;-59
2022/04/10 10:51:57;;;;;;;4.78;2.20;;;;;;;25.51;20.91;100697.31;5092674;28;20066;-58
2022/04/10 10:54:34;;;;;;;3.33;2.15;;;;;;;24.96;20.72;100699.81;5091676;28;20055;-57
2022/04/10 10:57:25;;;;;;;3.03;1.60;;;;;;;23.80;22.19;100690.19;5086218;28;20056;-58
2022/04/10 10:59:53;;;;;;;5.07;2.10;;;;;;;23.69;21.85;100703.53;5092909;28;20075;-58
2022/04/10 11:02:21;;;;;;;3.95;1.88;;;;;;;22.96;22.34;100704.25;5092996;28;20051;-54
2022/04/10 11:04:50;;;;;;;3.55;1.75;;;;;;;22.02;23.58;100710.19;5092135;28;20056;-56
2022/04/10 11:07:24;;;;;;;5.03;2.38;;;;;;;21.61;24.99;100701.59;5090847;28;20089;-55
2022/04/10 11:09:55;;;;;;;3.38;1.75;;;;;;;21.29;24.67;100713.22;5090322;28;20067;-55
2022/04/10 11:12:29;;;;;;;5.47;2.10;;;;;;;20.70;24.27;100709.03;5091248;28;20048;-55
2022/04/10 11:14:59;;;;;;;2.63;1.50;;;;;;;20.98;25.45;100703.88;5092171;28;20056;-54
2022/04/10 11:17:29;;;;;;;3.58;1.50;;;;;;;21.18;24.93;100700.94;5092317;28;20063;-53
2022/04/10 11:20:01;;;;;;;3.50;2.03;;;;;;;21.44;24.25;100700.97;5087011;28;20056;-58
2022/04/10 11:22:33;;;;;;;2.15;1.40;;;;;;;20.88;24.28;100710.97;5092012;28;20048;-56
2022/04/10 11:25:06;;;;;;;3.22;1.92;;;;;;;20.84;23.99;100703.63;5084781;28;20071;-60
2022/04/10 11:27:51;;;;;;;3.80;1.50;;;;;;;20.53;24.64;100713.97;5092166;28;20044;-57
2022/04/10 11:30:23;;;;;;;3.00;1.10;;;;;;;19.96;24.20;100710.88;5091781;28;20063;-59
2022/04/10 11:32:53;;;;;;;3.95;1.33;;;;;;;19.45;25.08;100708.16;5092260;28;20437;-58
2022/04/10 11:35:22;;;;;;;;;;;;;;;19.16;24.93;100712.31;5093151;28;20056;-56
2022/04/10 11:37:52;;;;;;;3.00;1.67;;;;;;;20.62;24.55;100714.59;5089573;28;20391;-54